Time;durP1;ratioP1;P1;durP2;ratioP2;P2;SDS_P1;SDS_P2;PMS_P1;PMS_P2;Temp;Humidity;BMP_temperature;BMP_pressure;BME280_temperature;BME280_humidity;BME280_pressure;Samples;Min_cycle;Max_cycle;Signal;HPM_P1;HPM_P2
2021/12/09 00:00:32;;;;;;;16.02;6.80;;;2.80;99.90;;;;;;5065366;28;20451;-72
2021/12/09 00:03:07;;;;;;;19.83;7.45;;;2.80;99.90;;;;;;5064763;28;20093;-70
2021/12/09 00:05:34;;;;;;;16.50;7.50;;;2.80;99.90;;;;;;5065066;28;20052;-70
2021/12/09 00:08:00;;;;;;;21.25;7.10;;;2.80;99.90;;;;;;5065116;28;20029;-68
2021/12/09 00:10:26;;;;;;;20.38;7.93;;;2.80;99.90;;;;;;5065227;28;20029;-71
2021/12/09 00:12:52;;;;;;;16.80;6.80;;;2.80;99.90;;;;;;5064801;28;20035;-70
2021/12/09 00:15:17;;;;;;;18.23;7.47;;;2.80;99.90;;;;;;5065620;28;20029;-71
2021/12/09 00:17:43;;;;;;;21.55;7.10;;;2.80;99.90;;;;;;5065140;28;20041;-69
2021/12/09 00:20:10;;;;;;;16.52;7.68;;;2.80;99.90;;;;;;5065548;28;20025;-71
2021/12/09 00:22:36;;;;;;;18.88;7.07;;;2.80;99.90;;;;;;5064822;28;20032;-71
2021/12/09 00:25:02;;;;;;;24.98;7.15;;;2.80;99.90;;;;;;5064012;28;20089;-69
2021/12/09 00:27:27;;;;;;;14.90;6.28;;;2.80;99.90;;;;;;5065260;28;20060;-70
2021/12/09 00:29:53;;;;;;;16.45;6.85;;;2.80;99.90;;;;;;5065503;28;20416;-69
2021/12/09 00:32:20;;;;;;;19.20;7.70;;;2.70;99.90;;;;;;5065150;28;20036;-71
2021/12/09 00:34:51;;;;;;;16.90;6.68;;;2.70;99.90;;;;;;5064795;28;20374;-70
2021/12/09 00:37:30;;;;;;;15.63;6.55;;;2.80;99.90;;;;;;5065423;28;20044;-71
2021/12/09 00:39:55;;;;;;;13.60;6.15;;;2.80;99.90;;;;;;5065115;28;20043;-70
2021/12/09 00:42:24;;;;;;;18.02;7.72;;;2.90;99.90;;;;;;5064864;28;20021;-69
2021/12/09 00:44:50;;;;;;;19.38;7.68;;;2.90;99.90;;;;;;5064742;28;20047;-69
2021/12/09 00:47:17;;;;;;;20.65;6.38;;;2.90;99.90;;;;;;5063981;28;20094;-71
2021/12/09 00:49:43;;;;;;;19.95;7.10;;;2.90;99.90;;;;;;5063895;28;20039;-70
2021/12/09 00:52:09;;;;;;;20.70;6.78;;;2.90;99.90;;;;;;5064893;28;20073;-70
2021/12/09 00:54:35;;;;;;;20.73;6.97;;;2.90;99.90;;;;;;5064376;28;20057;-71
2021/12/09 00:57:01;;;;;;;18.67;7.75;;;2.90;99.90;;;;;;5064939;28;20045;-70
2021/12/09 00:59:28;;;;;;;18.85;6.93;;;2.90;99.90;;;;;;5064214;28;20040;-70
2021/12/09 01:01:58;;;;;;;20.92;7.43;;;2.90;99.90;;;;;;5064771;28;20482;-71
2021/12/09 01:04:24;;;;;;;20.35;6.63;;;2.90;99.90;;;;;;5064731;28;20039;-69
2021/12/09 01:06:51;;;;;;;15.38;6.22;;;2.90;99.90;;;;;;5065039;28;20453;-70
2021/12/09 01:09:18;;;;;;;15.15;6.82;;;3.00;99.90;;;;;;5065078;28;20466;-71
2021/12/09 01:11:44;;;;;;;18.73;7.25;;;3.00;99.90;;;;;;5064869;28;20044;-70
2021/12/09 01:14:09;;;;;;;17.95;7.70;;;3.00;99.90;;;;;;5064376;28;20046;-71
2021/12/09 01:16:35;;;;;;;21.52;7.45;;;2.90;99.90;;;;;;5063074;28;20069;-71
2021/12/09 01:19:02;;;;;;;17.85;6.13;;;3.00;99.90;;;;;;5063051;28;20061;-71
2021/12/09 01:21:28;;;;;;;23.48;8.70;;;3.00;99.90;;;;;;5064203;28;20053;-70
2021/12/09 01:23:54;;;;;;;27.08;8.27;;;3.00;99.90;;;;;;5064415;28;20032;-72
2021/12/09 01:26:20;;;;;;;17.00;7.57;;;3.00;99.90;;;;;;5064682;28;20029;-72
2021/12/09 01:28:52;;;;;;;17.42;7.07;;;3.10;99.90;;;;;;5064853;28;20405;-70
2021/12/09 01:31:30;;;;;;;16.60;7.35;;;3.00;99.90;;;;;;5064237;28;20032;-71
2021/12/09 01:34:01;;;;;;;17.73;6.90;;;3.00;99.90;;;;;;5064209;28;20035;-71
2021/12/09 01:36:31;;;;;;;24.42;7.57;;;3.00;99.90;;;;;;5064213;28;20132;-71
2021/12/09 01:38:58;;;;;;;31.98;8.48;;;2.90;99.90;;;;;;5064336;28;20047;-71
2021/12/09 01:41:24;;;;;;;18.38;8.43;;;2.90;99.90;;;;;;5063233;28;20025;-69
2021/12/09 01:43:51;;;;;;;20.02;7.65;;;2.90;99.90;;;;;;5064406;28;20032;-69
2021/12/09 01:46:20;;;;;;;22.58;7.95;;;2.90;99.90;;;;;;5064741;28;20093;-73
2021/12/09 01:48:50;;;;;;;22.55;8.93;;;2.80;99.90;;;;;;5063239;28;20051;-69
2021/12/09 01:51:16;;;;;;;24.20;7.57;;;2.80;99.90;;;;;;5064856;28;20040;-69
2021/12/09 01:53:43;;;;;;;20.20;7.95;;;2.80;99.90;;;;;;5063718;28;20797;-69
2021/12/09 01:56:12;;;;;;;24.92;8.13;;;2.70;99.90;;;;;;5063031;28;20045;-69
2021/12/09 01:58:38;;;;;;;18.95;7.05;;;2.70;99.90;;;;;;5063072;28;20586;-70
2021/12/09 02:01:05;;;;;;;28.08;8.93;;;2.60;99.90;;;;;;5064054;28;20025;-70
2021/12/09 02:03:31;;;;;;;21.65;8.02;;;2.60;99.90;;;;;;5063927;28;20055;-71
2021/12/09 02:05:58;;;;;;;17.80;8.25;;;2.60;99.90;;;;;;5064164;28;20465;-70
2021/12/09 02:08:23;;;;;;;18.30;7.93;;;2.60;99.90;;;;;;5062645;28;20056;-69
2021/12/09 02:10:51;;;;;;;24.88;7.88;;;2.60;99.90;;;;;;5067162;28;20465;-71
2021/12/09 02:13:18;;;;;;;19.35;7.78;;;2.60;99.90;;;;;;5068145;28;20027;-70
2021/12/09 02:15:45;;;;;;;19.13;8.57;;;2.60;99.90;;;;;;5067350;28;20041;-70
2021/12/09 02:18:12;;;;;;;24.33;9.23;;;2.60;99.90;;;;;;5066601;28;20414;-71
2021/12/09 02:20:39;;;;;;;22.85;7.80;;;2.60;99.90;;;;;;5066503;28;20024;-69
2021/12/09 02:23:10;;;;;;;20.85;9.23;;;2.60;99.90;;;;;;5067322;28;20044;-70
2021/12/09 02:25:38;;;;;;;26.23;8.45;;;2.60;99.90;;;;;;5067758;28;20029;-69
2021/12/09 02:28:05;;;;;;;25.95;8.85;;;2.60;99.90;;;;;;5067573;28;20458;-71
2021/12/09 02:30:30;;;;;;;21.67;7.38;;;2.60;99.90;;;;;;5067825;28;20021;-69
2021/12/09 02:32:56;;;;;;;17.10;7.55;;;2.50;99.90;;;;;;5067383;28;20031;-71
2021/12/09 02:35:22;;;;;;;25.20;8.27;;;2.50;99.90;;;;;;5066047;28;20033;-70
2021/12/09 02:37:49;;;;;;;19.55;8.43;;;2.50;99.90;;;;;;5067523;28;20094;-72
2021/12/09 02:40:16;;;;;;;24.02;9.27;;;2.40;99.90;;;;;;5066172;28;20389;-71
2021/12/09 02:42:42;;;;;;;20.42;9.25;;;2.30;99.90;;;;;;5067452;28;20045;-70
2021/12/09 02:45:10;;;;;;;23.77;8.25;;;2.20;99.90;;;;;;5067050;28;20494;-68
2021/12/09 02:47:36;;;;;;;21.25;7.38;;;2.20;99.90;;;;;;5067094;28;20029;-69
2021/12/09 02:50:04;;;;;;;23.48;9.70;;;2.20;99.90;;;;;;5067361;28;20071;-69
2021/12/09 02:52:29;;;;;;;21.05;8.27;;;2.20;99.90;;;;;;5066034;28;20025;-69
2021/12/09 02:54:57;;;;;;;24.85;8.18;;;2.20;99.90;;;;;;5066743;28;20097;-67
2021/12/09 02:57:23;;;;;;;22.08;7.85;;;2.20;99.90;;;;;;5067283;28;20036;-67
2021/12/09 02:59:48;;;;;;;13.82;6.88;;;2.20;99.90;;;;;;5066781;28;20056;-71
2021/12/09 03:02:14;;;;;;;22.90;8.00;;;2.20;99.90;;;;;;5065235;28;20048;-69
2021/12/09 03:04:50;;;;;;;26.10;8.38;;;2.20;99.90;;;;;;5066553;28;20021;-69
2021/12/09 03:07:30;;;;;;;21.75;8.73;;;2.20;99.90;;;;;;5067122;28;20046;-70
2021/12/09 03:10:09;;;;;;;23.67;9.38;;;2.20;99.90;;;;;;5067021;28;20096;-70
2021/12/09 03:12:46;;;;;;;21.02;8.65;;;2.20;99.90;;;;;;5045748;28;20033;-70
2021/12/09 03:15:12;;;;;;;30.48;11.50;;;2.20;99.90;;;;;;5044969;28;20030;-71
2021/12/09 03:17:40;;;;;;;21.95;8.80;;;2.20;99.90;;;;;;5045387;28;20028;-70
2021/12/09 03:20:10;;;;;;;27.83;9.30;;;2.20;99.90;;;;;;5045252;28;20025;-68
2021/12/09 03:22:41;;;;;;;32.10;9.60;;;2.30;99.90;;;;;;5045454;28;20041;-70
2021/12/09 03:25:10;;;;;;;18.60;7.82;;;2.30;99.90;;;;;;5046812;28;20025;-69
2021/12/09 03:27:36;;;;;;;25.42;9.13;;;2.30;99.90;;;;;;5046342;28;20033;-70
2021/12/09 03:30:05;;;;;;;18.02;7.95;;;2.30;99.90;;;;;;5046298;28;20026;-71
2021/12/09 03:32:31;;;;;;;28.23;8.88;;;2.30;99.90;;;;;;5046337;28;20032;-70
2021/12/09 03:34:57;;;;;;;24.70;9.57;;;2.30;99.90;;;;;;5045974;28;20045;-71
2021/12/09 03:37:25;;;;;;;20.42;9.18;;;2.30;99.90;;;;;;5046465;28;20514;-71
2021/12/09 03:39:52;;;;;;;22.48;9.15;;;2.20;99.90;;;;;;5046553;28;20025;-71
2021/12/09 03:42:21;;;;;;;23.45;9.00;;;2.20;99.90;;;;;;5044806;28;20029;-72
2021/12/09 03:44:51;;;;;;;24.33;8.75;;;2.30;99.90;;;;;;5045872;28;20030;-71
2021/12/09 03:47:20;;;;;;;19.30;8.38;;;2.30;99.90;;;;;;5046436;28;20038;-73
2021/12/09 03:49:47;;;;;;;35.63;11.10;;;2.30;99.90;;;;;;5046423;28;20033;-70
2021/12/09 03:52:13;;;;;;;24.92;9.05;;;2.30;99.90;;;;;;5046198;28;20079;-70
2021/12/09 03:54:40;;;;;;;34.47;9.45;;;2.30;99.90;;;;;;5045107;28;20057;-69
2021/12/09 03:57:07;;;;;;;22.63;8.52;;;2.30;99.90;;;;;;5046008;28;20037;-71
2021/12/09 03:59:33;;;;;;;30.25;10.48;;;2.30;99.90;;;;;;5044534;28;20029;-69
2021/12/09 04:01:59;;;;;;;26.63;9.07;;;2.20;99.90;;;;;;5045876;28;20045;-70
2021/12/09 04:04:25;;;;;;;23.45;10.43;;;2.20;99.90;;;;;;5045579;28;20025;-71
2021/12/09 04:06:51;;;;;;;26.55;9.73;;;2.30;99.90;;;;;;5045912;28;20035;-70
2021/12/09 04:09:22;;;;;;;28.45;10.65;;;2.20;99.90;;;;;;5045847;28;20055;-72
2021/12/09 04:11:50;;;;;;;29.77;10.40;;;2.20;99.90;;;;;;5044711;28;20033;-71
2021/12/09 04:14:16;;;;;;;26.67;9.23;;;2.20;99.90;;;;;;5045121;28;20033;-70
2021/12/09 04:16:42;;;;;;;32.10;9.60;;;2.20;99.90;;;;;;5045665;28;20049;-71
2021/12/09 04:19:09;;;;;;;24.33;8.40;;;2.20;99.90;;;;;;5045622;28;20030;-69
2021/12/09 04:21:35;;;;;;;29.42;10.00;;;2.20;99.90;;;;;;5045440;28;20382;-70
2021/12/09 04:24:07;;;;;;;26.48;10.52;;;2.20;99.90;;;;;;5043700;28;20029;-70
2021/12/09 04:26:47;;;;;;;25.45;10.18;;;2.20;99.90;;;;;;5044170;28;20037;-70
2021/12/09 04:29:13;;;;;;;26.80;9.88;;;2.20;99.90;;;;;;5045597;28;20025;-69
2021/12/09 04:31:40;;;;;;;20.38;8.95;;;2.20;99.90;;;;;;5045498;28;20135;-70
2021/12/09 04:34:06;;;;;;;31.13;11.65;;;2.20;99.90;;;;;;5043950;28;20018;-71
2021/12/09 04:36:32;;;;;;;28.13;10.77;;;2.20;99.90;;;;;;5043960;28;20038;-69
2021/12/09 04:38:58;;;;;;;25.58;8.45;;;2.20;99.90;;;;;;5045246;28;20030;-70
2021/12/09 04:41:25;;;;;;;23.65;8.90;;;2.10;99.90;;;;;;5045371;28;20036;-70
2021/12/09 04:43:51;;;;;;;30.60;11.65;;;2.10;99.90;;;;;;5044873;28;20030;-71
2021/12/09 04:46:20;;;;;;;22.85;9.48;;;2.20;99.90;;;;;;5043646;28;20134;-70
2021/12/09 04:48:48;;;;;;;31.75;12.00;;;2.20;99.90;;;;;;5045336;28;20428;-69
2021/12/09 04:51:14;;;;;;;21.95;9.77;;;2.20;99.90;;;;;;5045261;28;20034;-69
2021/12/09 04:53:44;;;;;;;26.00;10.60;;;2.30;99.90;;;;;;5044441;28;20032;-71
2021/12/09 04:56:09;;;;;;;31.13;9.20;;;2.30;99.90;;;;;;5044410;28;20060;-70
2021/12/09 04:58:36;;;;;;;32.25;10.15;;;2.30;99.90;;;;;;5043642;28;20498;-71
2021/12/09 05:01:04;;;;;;;28.45;10.60;;;2.30;99.90;;;;;;5044868;28;20036;-70
2021/12/09 05:03:30;;;;;;;22.77;9.57;;;2.30;99.90;;;;;;5044183;28;20462;-71
2021/12/09 05:05:57;;;;;;;31.17;10.35;;;2.30;99.90;;;;;;5044656;28;20029;-73
2021/12/09 05:08:27;;;;;;;30.38;11.13;;;2.30;99.90;;;;;;5044883;28;20471;-72
2021/12/09 05:13:27;;;;;;;22.98;9.60;;;2.30;99.90;;;;;;5044731;28;20105;-72
2021/12/09 05:15:54;;;;;;;27.75;8.63;;;2.30;99.90;;;;;;5044283;28;20033;-70
2021/12/09 05:18:28;;;;;;;35.75;11.70;;;2.30;99.90;;;;;;5044684;28;20043;-73
2021/12/09 05:20:54;;;;;;;32.00;9.48;;;2.30;99.90;;;;;;5044832;28;20029;-73
2021/12/09 05:23:23;;;;;;;36.95;12.57;;;2.30;99.90;;;;;;5044521;28;20037;-70
2021/12/09 05:25:49;;;;;;;27.85;9.70;;;2.30;99.90;;;;;;5044753;28;20033;-71
2021/12/09 05:28:16;;;;;;;40.72;12.18;;;2.30;99.90;;;;;;5043492;28;20030;-68
2021/12/09 05:33:28;;;;;;;38.58;12.02;;;2.20;99.90;;;;;;5044420;28;20056;-70
2021/12/09 05:35:56;;;;;;;44.08;11.88;;;2.20;99.90;;;;;;5044079;28;20490;-69
2021/12/09 05:38:22;;;;;;;35.13;12.30;;;2.20;99.90;;;;;;5044402;28;20029;-72
2021/12/09 05:40:49;;;;;;;39.90;12.98;;;2.20;99.90;;;;;;5044657;28;20044;-71
2021/12/09 05:43:15;;;;;;;47.92;13.13;;;2.20;99.90;;;;;;5043238;28;20040;-70
2021/12/09 05:45:42;;;;;;;38.65;12.63;;;2.20;99.90;;;;;;5047269;28;20033;-69
2021/12/09 05:48:09;;;;;;;38.22;11.68;;;2.20;99.90;;;;;;5048371;28;20041;-70
2021/12/09 05:50:35;;;;;;;38.45;12.07;;;2.30;99.90;;;;;;5048293;28;20037;-70
2021/12/09 05:53:01;;;;;;;42.03;13.60;;;2.30;99.90;;;;;;5048360;28;20112;-70
2021/12/09 05:55:27;;;;;;;38.20;11.93;;;2.30;99.90;;;;;;5047926;28;20060;-70
2021/12/09 05:57:53;;;;;;;39.17;12.20;;;2.30;99.90;;;;;;5048222;28;20030;-71
2021/12/09 06:00:18;;;;;;;43.83;12.50;;;2.30;99.90;;;;;;5048354;28;20386;-70
2021/12/09 06:02:44;;;;;;;35.53;11.90;;;2.30;99.90;;;;;;5048288;28;20037;-71
2021/12/09 06:05:10;;;;;;;51.22;14.18;;;2.30;99.90;;;;;;5048097;28;20029;-71
2021/12/09 06:07:35;;;;;;;39.40;13.75;;;2.30;99.90;;;;;;5048038;28;20075;-70
2021/12/09 06:10:03;;;;;;;47.80;12.77;;;2.30;99.90;;;;;;5048100;28;20017;-68
2021/12/09 06:12:29;;;;;;;35.80;12.95;;;2.30;99.90;;;;;;5048019;28;20034;-69
2021/12/09 06:14:56;;;;;;;56.17;13.88;;;2.30;99.90;;;;;;5055399;28;20048;-69
2021/12/09 06:17:22;;;;;;;47.42;13.38;;;2.30;99.90;;;;;;5067670;28;20069;-70
2021/12/09 06:19:49;;;;;;;37.92;11.73;;;2.30;99.90;;;;;;5067934;28;20068;-70
2021/12/09 06:22:14;;;;;;;39.92;12.50;;;2.30;99.90;;;;;;5066620;28;20032;-70
2021/12/09 06:24:41;;;;;;;39.78;12.43;;;2.20;99.90;;;;;;5066443;28;20021;-69
2021/12/09 06:27:07;;;;;;;28.90;10.95;;;2.20;99.90;;;;;;5067837;28;20025;-71
2021/12/09 06:29:34;;;;;;;46.08;12.05;;;2.20;99.90;;;;;;5066117;28;20071;-71
2021/12/09 06:32:01;;;;;;;47.97;11.95;;;2.20;99.90;;;;;;5065992;28;20401;-71
2021/12/09 06:34:26;;;;;;;36.55;11.35;;;2.20;99.90;;;;;;5067583;28;20055;-70
2021/12/09 06:36:53;;;;;;;45.97;14.18;;;2.20;99.90;;;;;;5067478;28;20045;-74
2021/12/09 06:39:19;;;;;;;39.30;10.80;;;2.20;99.90;;;;;;5067572;28;20029;-72
2021/12/09 06:41:45;;;;;;;36.42;11.77;;;2.10;99.90;;;;;;5066289;28;20032;-71
2021/12/09 06:44:10;;;;;;;45.70;13.27;;;2.20;99.90;;;;;;5067510;28;20029;-71
2021/12/09 06:46:37;;;;;;;36.78;13.73;;;2.10;99.90;;;;;;5067123;28;20087;-71
2021/12/09 06:49:12;;;;;;;44.80;12.60;;;2.20;99.90;;;;;;5066137;28;20029;-73
2021/12/09 06:51:37;;;;;;;33.92;11.90;;;2.20;99.90;;;;;;5067025;28;20032;-73
2021/12/09 06:54:04;;;;;;;48.97;16.10;;;2.20;99.90;;;;;;5066785;28;20052;-74
2021/12/09 06:56:32;;;;;;;42.58;9.43;;;2.20;99.90;;;;;;5065958;28;20045;-74
2021/12/09 06:58:59;;;;;;;43.28;13.88;;;2.10;99.90;;;;;;5064764;28;20087;-73
2021/12/09 07:01:25;;;;;;;50.53;14.32;;;2.10;99.90;;;;;;5054709;28;20466;-72
2021/12/09 07:03:53;;;;;;;38.88;13.02;;;2.10;99.90;;;;;;5051457;28;20063;-74
2021/12/09 07:06:23;;;;;;;52.72;12.30;;;2.20;99.90;;;;;;5055917;28;20478;-73
2021/12/09 07:08:52;;;;;;;36.55;10.45;;;2.10;99.90;;;;;;5066377;28;20036;-71
2021/12/09 07:11:21;;;;;;;41.35;13.60;;;2.10;99.90;;;;;;5055237;28;20093;-73
2021/12/09 07:13:48;;;;;;;50.60;13.85;;;2.10;99.90;;;;;;5064995;28;20449;-72
2021/12/09 07:16:14;;;;;;;45.35;15.45;;;2.10;99.90;;;;;;5052993;28;20041;-73
2021/12/09 07:18:40;;;;;;;40.15;11.55;;;2.10;99.90;;;;;;5055346;28;20025;-72
2021/12/09 07:21:06;;;;;;;31.33;12.27;;;2.10;99.90;;;;;;5062381;28;20033;-73
2021/12/09 07:23:33;;;;;;;44.40;11.55;;;2.10;99.90;;;;;;5056991;28;20029;-72
2021/12/09 07:25:59;;;;;;;56.13;16.45;;;2.10;99.90;;;;;;5064101;28;20084;-71
2021/12/09 07:28:31;;;;;;;45.10;13.65;;;2.10;99.90;;;;;;5054550;28;20039;-73
2021/12/09 07:30:57;;;;;;;39.83;12.88;;;2.10;99.90;;;;;;5050840;28;20029;-72
2021/12/09 07:33:23;;;;;;;36.70;12.63;;;2.10;99.90;;;;;;5065395;28;20037;-73
2021/12/09 07:35:53;;;;;;;37.45;11.65;;;2.10;99.90;;;;;;5066415;28;20032;-74
2021/12/09 07:38:22;;;;;;;51.35;14.90;;;2.10;99.90;;;;;;5081150;28;20033;-74
2021/12/09 07:40:55;;;;;;;41.15;13.70;;;2.10;99.90;;;;;;5066535;28;20532;-74
2021/12/09 07:43:22;;;;;;;45.55;14.27;;;2.10;99.90;;;;;;5063830;28;20089;-73
2021/12/09 07:45:53;;;;;;;44.15;13.02;;;2.10;99.90;;;;;;5059954;28;20029;-72
2021/12/09 07:48:20;;;;;;;47.72;13.63;;;2.10;99.90;;;;;;5061997;28;20064;-75
2021/12/09 07:50:46;;;;;;;59.28;13.88;;;2.10;99.90;;;;;;5065522;28;20037;-72
2021/12/09 07:53:17;;;;;;;50.92;13.10;;;2.10;99.90;;;;;;5065922;28;20031;-73
2021/12/09 07:55:43;;;;;;;37.70;13.13;;;2.10;99.90;;;;;;5064605;28;20075;-73
2021/12/09 07:58:09;;;;;;;36.75;10.85;;;2.10;99.90;;;;;;5065004;28;20033;-72
2021/12/09 08:00:35;;;;;;;31.40;11.27;;;2.10;99.90;;;;;;5063812;28;20032;-72
2021/12/09 08:03:02;;;;;;;47.17;14.50;;;2.10;99.90;;;;;;5063618;28;20035;-71
2021/12/09 08:05:31;;;;;;;39.78;11.40;;;2.10;99.90;;;;;;5064092;28;20120;-74
2021/12/09 08:07:57;;;;;;;36.63;11.77;;;2.10;99.90;;;;;;5063095;28;20025;-72
2021/12/09 08:10:24;;;;;;;38.20;12.35;;;2.10;99.90;;;;;;5064773;28;20037;-72
2021/12/09 08:12:51;;;;;;;41.60;11.35;;;2.10;99.90;;;;;;5065614;28;20025;-72
2021/12/09 08:15:17;;;;;;;43.42;12.52;;;2.10;99.90;;;;;;5065539;28;20021;-72
2021/12/09 08:17:46;;;;;;;43.50;13.15;;;2.10;99.90;;;;;;5065343;28;20823;-71
2021/12/09 08:20:16;;;;;;;39.63;11.55;;;2.20;99.90;;;;;;5056731;28;20120;-72
2021/12/09 08:22:44;;;;;;;49.78;12.18;;;2.20;99.90;;;;;;5064050;28;20105;-71
2021/12/09 08:25:13;;;;;;;40.50;10.88;;;2.20;99.90;;;;;;5064054;28;20040;-73
2021/12/09 08:27:42;;;;;;;38.13;12.18;;;2.20;99.90;;;;;;5063037;28;20052;-73
2021/12/09 08:30:10;;;;;;;50.22;13.75;;;2.20;99.90;;;;;;5063888;28;20021;-72
2021/12/09 08:32:35;;;;;;;44.92;12.68;;;2.20;99.90;;;;;;5063564;28;20021;-73
2021/12/09 08:35:01;;;;;;;43.70;13.63;;;2.10;99.90;;;;;;5062725;28;20052;-72
2021/12/09 08:37:29;;;;;;;53.65;14.48;;;2.10;99.90;;;;;;5062578;28;20040;-72
2021/12/09 08:39:55;;;;;;;42.58;12.27;;;2.10;99.90;;;;;;5064829;28;20116;-72
2021/12/09 08:42:27;;;;;;;39.85;12.60;;;2.10;99.90;;;;;;5065240;28;20029;-73
2021/12/09 08:44:54;;;;;;;56.78;13.93;;;2.10;99.90;;;;;;5063953;28;20033;-73
2021/12/09 08:47:19;;;;;;;45.30;15.10;;;2.20;99.90;;;;;;5063688;28;20033;-73
2021/12/09 08:49:45;;;;;;;45.10;13.38;;;2.20;99.90;;;;;;5062717;28;20412;-72
2021/12/09 08:52:11;;;;;;;49.70;13.60;;;2.20;99.90;;;;;;5064754;28;20075;-74
2021/12/09 08:54:37;;;;;;;42.35;14.60;;;2.20;99.90;;;;;;5062479;28;20050;-73
2021/12/09 08:57:04;;;;;;;40.85;11.65;;;2.20;99.90;;;;;;5061739;28;20443;-73
2021/12/09 08:59:31;;;;;;;45.65;13.93;;;2.20;99.90;;;;;;5064255;28;20359;-73
2021/12/09 09:01:57;;;;;;;48.70;13.75;;;2.30;99.90;;;;;;5064136;28;20033;-73
2021/12/09 09:04:22;;;;;;;58.05;15.27;;;2.20;99.90;;;;;;5051503;28;20033;-73
2021/12/09 09:06:55;;;;;;;46.95;13.73;;;2.30;99.90;;;;;;5053497;28;20428;-75
2021/12/09 09:09:34;;;;;;;60.92;14.82;;;2.30;99.90;;;;;;5061469;28;20079;-75
2021/12/09 09:12:03;;;;;;;32.13;12.23;;;2.30;99.90;;;;;;5054125;28;20388;-73
2021/12/09 09:14:28;;;;;;;69.85;14.77;;;2.30;99.90;;;;;;5064467;28;20033;-72
2021/12/09 09:16:57;;;;;;;44.10;13.38;;;2.30;99.90;;;;;;5062749;28;20041;-73
2021/12/09 09:19:24;;;;;;;31.25;13.55;;;2.30;99.90;;;;;;5063404;28;20032;-74
2021/12/09 09:21:51;;;;;;;66.50;16.30;;;2.30;99.90;;;;;;5062540;28;20059;-72
2021/12/09 09:24:24;;;;;;;37.40;10.80;;;2.30;99.90;;;;;;5062198;28;20021;-72
2021/12/09 09:26:54;;;;;;;40.97;13.47;;;2.30;99.90;;;;;;5051397;28;20093;-72
2021/12/09 09:29:46;;;;;;;44.05;10.57;;;2.30;99.90;;;;;;5058472;28;20308;-74
2021/12/09 09:32:18;;;;;;;47.33;13.73;;;2.30;99.90;;;;;;5066071;28;20092;-72
2021/12/09 09:34:54;;;;;;;43.90;13.30;;;2.30;99.90;;;;;;5052108;28;20025;-75
2021/12/09 09:37:22;;;;;;;34.90;13.13;;;2.30;99.90;;;;;;5063799;28;20405;-74
2021/12/09 09:39:50;;;;;;;43.30;13.23;;;2.30;99.90;;;;;;5052821;28;20090;-73
2021/12/09 09:42:55;;;;;;;47.10;14.15;;;2.30;99.90;;;;;;5050230;28;20429;-74
2021/12/09 09:45:11;;;;;;;64.63;13.23;;;2.30;99.90;;;;;;5048264;28;20037;-74
2021/12/09 09:47:37;;;;;;;56.05;13.45;;;2.40;99.90;;;;;;5042636;28;20040;-72
2021/12/09 09:50:06;;;;;;;51.65;14.93;;;2.40;99.90;;;;;;5044665;28;20033;-73
2021/12/09 09:52:33;;;;;;;42.13;12.73;;;2.30;99.90;;;;;;5043463;28;20029;-71
2021/12/09 09:55:01;;;;;;;41.75;14.43;;;2.30;99.90;;;;;;5041108;28;20058;-71
2021/12/09 09:57:29;;;;;;;50.20;18.27;;;2.40;99.90;;;;;;5043987;28;20167;-71
2021/12/09 10:00:08;;;;;;;55.15;16.55;;;2.30;99.90;;;;;;5048179;28;20036;-72
2021/12/09 10:02:34;;;;;;;51.13;14.98;;;2.30;99.90;;;;;;5044408;28;20026;-72
2021/12/09 10:05:02;;;;;;;49.00;14.90;;;2.30;99.90;;;;;;5042853;28;20028;-72
2021/12/09 10:07:29;;;;;;;56.58;13.77;;;2.40;99.90;;;;;;5042836;28;20025;-72
2021/12/09 10:10:04;;;;;;;37.78;13.43;;;2.40;99.90;;;;;;5044450;28;20466;-73
2021/12/09 10:12:30;;;;;;;56.65;16.05;;;2.40;99.90;;;;;;5043823;28;20033;-73
2021/12/09 10:15:04;;;;;;;74.70;15.80;;;2.40;99.90;;;;;;5042482;28;20059;-74
2021/12/09 10:17:30;;;;;;;45.15;14.07;;;2.40;99.90;;;;;;5044495;28;20063;-71
2021/12/09 10:20:02;;;;;;;45.38;14.05;;;2.40;99.90;;;;;;5046842;28;20026;-72
2021/12/09 10:22:34;;;;;;;49.05;11.02;;;2.40;99.90;;;;;;5043761;28;20025;-72
2021/12/09 10:25:02;;;;;;;40.28;13.52;;;2.40;99.90;;;;;;5063010;28;20044;-71
2021/12/09 10:27:34;;;;;;;44.47;13.32;;;2.40;99.90;;;;;;5063155;28;20078;-74
2021/12/09 10:30:16;;;;;;;62.35;17.08;;;2.40;99.90;;;;;;5061161;28;20062;-72
2021/12/09 10:32:44;;;;;;;47.47;13.80;;;2.50;99.90;;;;;;5053986;28;20033;-74
2021/12/09 10:35:11;;;;;;;56.80;16.27;;;2.50;99.90;;;;;;5061492;28;20032;-73
2021/12/09 10:37:39;;;;;;;58.25;15.65;;;2.50;99.90;;;;;;5054283;28;20073;-74
2021/12/09 10:40:07;;;;;;;41.53;10.98;;;2.50;99.90;;;;;;5065572;28;20029;-73
2021/12/09 10:42:54;;;;;;;60.17;15.38;;;2.50;99.90;;;;;;5056308;28;20055;-75
2021/12/09 10:45:30;;;;;;;50.35;14.00;;;2.40;99.90;;;;;;5053380;28;20025;-74
2021/12/09 10:48:10;;;;;;;47.00;12.38;;;2.40;99.90;;;;;;5056283;28;20037;-72
2021/12/09 10:50:42;;;;;;;66.57;16.20;;;2.40;99.90;;;;;;5060546;28;20029;-75
2021/12/09 10:55:59;;;;;;;55.45;13.75;;;2.40;99.90;;;;;;5066466;28;20116;-74
2021/12/09 10:58:30;;;;;;;45.75;12.35;;;2.50;99.90;;;;;;5065391;28;20032;-74
2021/12/09 11:00:59;;;;;;;51.63;13.02;;;2.50;99.90;;;;;;5066389;28;20025;-73
2021/12/09 11:03:40;;;;;;;42.25;11.07;;;2.60;99.90;;;;;;5066389;28;20045;-73
2021/12/09 11:06:14;;;;;;;47.78;14.23;;;2.60;99.90;;;;;;5063612;28;20033;-73
2021/12/09 11:08:54;;;;;;;58.88;14.20;;;2.50;99.90;;;;;;5056508;28;20037;-73
2021/12/09 11:11:32;;;;;;;39.15;13.60;;;2.50;99.90;;;;;;5045188;28;20049;-73
2021/12/09 11:14:03;;;;;;;54.92;14.00;;;2.50;99.90;;;;;;5053922;28;20029;-74
2021/12/09 11:16:31;;;;;;;42.83;11.75;;;2.50;99.90;;;;;;5066192;28;20049;-74
2021/12/09 11:19:08;;;;;;;54.50;14.70;;;2.60;99.90;;;;;;5066234;28;20044;-74
2021/12/09 11:21:40;;;;;;;59.42;16.30;;;2.60;99.90;;;;;;5066034;28;20036;-75
2021/12/09 11:24:16;;;;;;;64.38;15.27;;;2.60;99.90;;;;;;5066234;28;20036;-73
2021/12/09 11:27:01;;;;;;;54.88;16.27;;;2.60;99.90;;;;;;5046020;28;20025;-73
2021/12/09 11:29:37;;;;;;;49.60;15.02;;;2.60;99.90;;;;;;5044450;28;20033;-77
2021/12/09 11:35:26;;;;;;;46.03;13.55;;;2.70;99.90;;;;;;5045713;28;20152;-74
2021/12/09 11:38:06;;;;;;;47.72;12.32;;;2.70;99.90;;;;;;5045614;28;20457;-74
2021/12/09 11:40:43;;;;;;;50.65;16.10;;;2.70;99.90;;;;;;5044378;28;20029;-74
2021/12/09 11:43:12;;;;;;;48.08;13.38;;;2.70;99.90;;;;;;5043757;28;20035;-73
2021/12/09 11:45:44;;;;;;;58.40;16.60;;;2.70;99.90;;;;;;5045629;28;20025;-72
2021/12/09 11:48:11;;;;;;;52.00;15.05;;;2.70;99.90;;;;;;5059150;28;20033;-74
2021/12/09 11:50:43;;;;;;;60.60;14.77;;;2.80;99.90;;;;;;5055082;28;20029;-74
2021/12/09 11:53:12;;;;;;;53.72;14.88;;;2.80;99.90;;;;;;5065829;28;20093;-74
2021/12/09 11:55:47;;;;;;;41.75;13.35;;;2.80;99.90;;;;;;5067909;28;20409;-74
2021/12/09 11:58:44;;;;;;;49.58;14.52;;;2.80;99.90;;;;;;5045895;28;20021;-74
2021/12/09 12:13:17;;;;;;;42.58;12.35;;;2.90;99.90;;;;;;5044643;28;20033;-74
2021/12/09 12:15:49;;;;;;;57.03;14.30;;;2.90;99.90;;;;;;5044214;28;20041;-75
2021/12/09 12:32:37;;;;;;;50.60;13.30;;;2.90;99.90;;;;;;5063592;28;20366;-73
2021/12/09 12:35:33;;;;;;;43.20;16.10;;;2.90;99.90;;;;;;5063082;28;20080;-76
2021/12/09 12:38:13;;;;;;;40.42;15.20;;;2.90;99.90;;;;;;5063387;28;20029;-71
2021/12/09 12:40:59;;;;;;;43.95;12.90;;;2.90;99.90;;;;;;5063779;28;20040;-71
2021/12/09 12:43:38;;;;;;;40.88;14.65;;;2.90;99.90;;;;;;5059470;28;20029;-74
2021/12/09 12:46:14;;;;;;;47.08;11.90;;;2.90;99.90;;;;;;5049193;28;20053;-73
2021/12/09 12:51:44;;;;;;;41.33;14.43;;;2.90;99.90;;;;;;5061050;28;20102;-74
2021/12/09 12:57:35;;;;;;;49.20;14.32;;;2.90;99.90;;;;;;5050948;28;20466;-74
2021/12/09 13:00:41;;;;;;;40.78;13.73;;;2.90;99.90;;;;;;5063879;28;20059;-74
2021/12/09 13:03:20;;;;;;;45.92;13.68;;;2.90;99.90;;;;;;5055519;28;20037;-73
2021/12/09 13:06:04;;;;;;;45.33;14.43;;;2.90;99.90;;;;;;5062403;28;20055;-72
2021/12/09 13:08:45;;;;;;;60.08;13.50;;;2.90;99.90;;;;;;5063527;28;20029;-73
2021/12/09 13:11:18;;;;;;;55.10;14.88;;;2.90;99.90;;;;;;5062661;28;20398;-73
2021/12/09 13:14:05;;;;;;;40.03;13.48;;;3.10;99.90;;;;;;5063179;28;20039;-73
2021/12/09 13:19:18;;;;;;;46.08;14.15;;;3.00;99.90;;;;;;5062448;28;20104;-73
2021/12/09 13:21:57;;;;;;;50.63;15.25;;;3.00;99.90;;;;;;5043327;28;20105;-73
2021/12/09 13:27:48;;;;;;;39.10;12.50;;;3.10;99.90;;;;;;5048504;28;20052;-75
2021/12/09 13:30:38;;;;;;;46.80;13.48;;;3.20;99.90;;;;;;5062388;28;20021;-75
2021/12/09 13:50:12;;;;;;;51.20;13.88;;;3.20;99.90;;;;;;5060682;28;20139;-73
2021/12/09 13:55:09;;;;;;;46.13;12.70;;;3.20;99.90;;;;;;5061717;28;20041;-73
2021/12/09 13:57:44;;;;;;;42.70;12.88;;;3.20;99.90;;;;;;5063934;28;20040;-73
2021/12/09 14:00:35;;;;;;;42.67;13.23;;;3.20;99.90;;;;;;5063926;28;20029;-74